To NAV CANADA Home Page Login to a new session Search on AWWS site Disclaimer Vers la page française équivalente Tips FAQ What's new on the site To the Forecasts and Observations / NOTAM section To "File a Flight Plan" website Publications and other links Update of the User's profile FIC Telephone Numbers My Weather Data Folder Route Weather Data Regional Weather Data Local Weather Data To the Forecasts and Observations / NOTAM section
Request Generated 06/15/2019 at 22:34:50 UTC . Weather information available at that time is displayed.

METAR/TAF

TORONTO/LESTER B. PEARSON INTL/ON    

METAR CYYZ 152200Z 21007KT 15SM -RA OVC023 18/15 A2982 RMK SC8 SLP100 DENSITY ALT 1200FT=
METAR CYYZ 152100Z 20014KT 15SM FEW019 OVC024 19/15 A2982 RMK CF2SC6 SLP098 DENSITY ALT 1300FT=
METAR CYYZ 152000Z 21010G21KT 15SM BKN020 OVC028 19/15 A2982 RMK CU5SC3 SLP098 DENSITY ALT 1300FT=

TAF CYYZ 152038Z 1521/1624 22010G20KT P6SM OVC025 TEMPO 1521/1601
P6SM -SHRA OVC015
BECMG 1523/1601 33010KT
FM160100 33010KT P6SM OVC015 TEMPO 1601/1604 4SM -SHRA BR BKN007
OVC012
FM160400 01006KT P6SM OVC025 TEMPO 1604/1606 4SM BR BKN007 OVC020
FM160800 02008KT P6SM OVC030
FM161400 06010KT P6SM BKN030 BKN250
FM161600 09010KT P6SM BKN250
FM162000 14008KT P6SM BKN180
RMK NXT FCST BY 160000Z=
Your time UTC time
Weather data provided by Environment Canada and NAV CANADA